Time;durP1;ratioP1;P1;durP2;ratioP2;P2;SDS_P1;SDS_P2;PMS_P1;PMS_P2;Temp;Humidity;BMP_temperature;BMP_pressure;BME280_temperature;BME280_humidity;BME280_pressure;Samples;Min_cycle;Max_cycle;Signal;HPM_P1;HPM_P2
2023/07/31 00:01:14;;;;;;;37.10;10.45;;;17.00;99.90;;;;;;4928676;28;36568;-78
2023/07/31 00:03:40;;;;;;;31.80;10.45;;;17.10;99.90;;;;;;4928944;29;39263;-77
2023/07/31 00:06:06;;;;;;;50.83;12.02;;;17.10;99.90;;;;;;4932428;28;39436;-77
2023/07/31 00:08:32;;;;;;;44.88;11.60;;;17.00;99.90;;;;;;4929823;29;40090;-77
2023/07/31 00:10:59;;;;;;;58.97;12.70;;;17.00;99.90;;;;;;4930314;29;37434;-77
2023/07/31 00:13:25;;;;;;;43.22;11.32;;;17.00;99.90;;;;;;4942453;28;38628;-77
2023/07/31 00:15:51;;;;;;;54.95;12.75;;;17.00;99.90;;;;;;4933444;28;40496;-77
2023/07/31 00:18:17;;;;;;;44.00;12.18;;;17.00;99.90;;;;;;4940081;28;38957;-77
2023/07/31 00:20:43;;;;;;;47.22;13.10;;;17.00;99.90;;;;;;4929685;28;37274;-76
2023/07/31 00:23:09;;;;;;;46.53;12.48;;;17.00;99.90;;;;;;4919825;29;38861;-77
2023/07/31 00:25:36;;;;;;;52.65;12.70;;;17.00;99.90;;;;;;4901355;29;39488;-78
2023/07/31 00:28:02;;;;;;;52.47;13.55;;;17.10;99.90;;;;;;4911918;29;37763;-78
2023/07/31 00:30:28;;;;;;;44.30;12.88;;;17.10;99.90;;;;;;4926085;29;37946;-77
2023/07/31 00:32:54;;;;;;;57.97;12.65;;;17.10;99.90;;;;;;4913251;28;38801;-76
2023/07/31 00:35:21;;;;;;;45.72;14.15;;;17.10;99.90;;;;;;4925549;28;38731;-77
2023/07/31 00:37:47;;;;;;;46.25;11.98;;;17.00;99.90;;;;;;4931530;28;39058;-79
2023/07/31 00:40:14;;;;;;;29.58;9.40;;;17.00;99.90;;;;;;4922219;29;39231;-77
2023/07/31 00:42:40;;;;;;;32.63;9.80;;;17.00;99.90;;;;;;4923271;28;38683;-77
2023/07/31 00:45:07;;;;;;;30.45;9.82;;;16.90;99.90;;;;;;4926315;28;40581;-77
2023/07/31 00:47:33;;;;;;;26.15;9.13;;;16.90;99.90;;;;;;4934852;28;39137;-77
2023/07/31 00:50:00;;;;;;;24.30;7.78;;;16.90;99.90;;;;;;4922077;29;38192;-78
2023/07/31 00:52:26;;;;;;;21.23;7.35;;;16.90;99.90;;;;;;4928645;28;39686;-77
2023/07/31 00:54:53;;;;;;;20.92;6.15;;;16.90;99.90;;;;;;4929719;29;38014;-79
2023/07/31 00:57:19;;;;;;;19.73;7.07;;;16.80;99.90;;;;;;4931541;28;38807;-76
2023/07/31 00:59:46;;;;;;;24.73;7.47;;;16.70;99.90;;;;;;4925271;28;37597;-78
2023/07/31 01:02:12;;;;;;;36.25;9.82;;;16.70;99.90;;;;;;5340962;23;37756;-79
2023/07/31 01:04:38;;;;;;;31.17;10.15;;;16.80;99.90;;;;;;4926821;28;39900;-78
2023/07/31 01:07:31;;;;;;;36.95;9.98;;;16.80;99.90;;;;;;4927347;28;38876;-79
2023/07/31 01:10:11;;;;;;;43.83;12.52;;;16.80;99.90;;;;;;4933241;28;38286;-76
2023/07/31 01:12:38;;;;;;;43.70;12.13;;;16.90;99.90;;;;;;4945768;28;48416;-78
2023/07/31 01:15:05;;;;;;;53.10;11.98;;;16.90;99.90;;;;;;4931343;28;39874;-76
2023/07/31 01:17:31;;;;;;;38.42;11.07;;;16.90;99.90;;;;;;4922435;28;39237;-76
2023/07/31 01:20:02;;;;;;;51.08;11.30;;;16.90;99.90;;;;;;4922583;28;38515;-77
2023/07/31 01:22:44;;;;;;;42.78;10.95;;;16.90;99.90;;;;;;4922089;29;47185;-77
2023/07/31 01:25:22;;;;;;;37.97;9.53;;;16.90;99.90;;;;;;4920427;28;39943;-78
2023/07/31 01:27:59;;;;;;;37.85;10.85;;;16.90;99.90;;;;;;4930493;28;37298;-77
2023/07/31 01:30:33;;;;;;;43.63;10.88;;;16.90;99.90;;;;;;4928282;28;37378;-77
2023/07/31 01:33:02;;;;;;;42.58;10.90;;;16.90;99.90;;;;;;4913328;28;39129;-77
2023/07/31 01:35:28;;;;;;;39.10;10.80;;;16.90;99.90;;;;;;4908410;29;46984;-77
2023/07/31 01:37:55;;;;;;;34.78;10.60;;;16.90;99.90;;;;;;4927662;28;39297;-77
2023/07/31 01:40:21;;;;;;;43.85;12.52;;;16.90;99.90;;;;;;4930565;29;37286;-77
2023/07/31 01:42:47;;;;;;;49.70;11.60;;;16.80;99.90;;;;;;4915078;29;37900;-78
2023/07/31 01:45:13;;;;;;;40.83;12.65;;;16.90;99.90;;;;;;4925510;28;40198;-77
2023/07/31 01:47:39;;;;;;;50.22;12.60;;;16.80;99.90;;;;;;4931495;28;38340;-78
2023/07/31 01:50:06;;;;;;;43.58;11.85;;;16.80;99.90;;;;;;4930989;28;38511;-77
2023/07/31 01:52:32;;;;;;;46.80;12.98;;;16.80;99.90;;;;;;4937139;28;39294;-78
2023/07/31 01:54:58;;;;;;;46.15;12.45;;;16.90;99.90;;;;;;4933852;28;40179;-78
2023/07/31 01:57:24;;;;;;;47.35;12.45;;;16.80;99.90;;;;;;4930696;28;39989;-78
2023/07/31 01:59:53;;;;;;;44.60;12.20;;;16.80;99.90;;;;;;4932889;28;37600;-78
2023/07/31 02:02:19;;;;;;;39.15;11.32;;;16.80;99.90;;;;;;4931569;29;38702;-79
2023/07/31 02:04:46;;;;;;;47.90;12.27;;;16.80;99.90;;;;;;4914922;29;39121;-78
2023/07/31 02:07:12;;;;;;;46.13;12.48;;;16.80;99.90;;;;;;4936497;28;39348;-78
2023/07/31 02:09:40;;;;;;;48.67;11.95;;;16.80;99.90;;;;;;4928198;28;37704;-78
2023/07/31 02:12:08;;;;;;;37.00;10.43;;;16.80;99.90;;;;;;4934746;28;37683;-78
2023/07/31 02:14:34;;;;;;;40.97;11.32;;;16.80;99.90;;;;;;4921407;29;39661;-77
2023/07/31 02:17:01;;;;;;;36.50;11.10;;;16.80;99.90;;;;;;4932336;28;38801;-78
2023/07/31 02:19:27;;;;;;;38.38;10.05;;;16.80;99.90;;;;;;4921393;29;47712;-78
2023/07/31 02:21:53;;;;;;;35.53;10.23;;;16.80;99.90;;;;;;4912536;29;39688;-78
2023/07/31 02:24:19;;;;;;;32.65;9.77;;;16.80;99.90;;;;;;4909650;29;37696;-78
2023/07/31 02:26:46;;;;;;;40.30;9.57;;;16.70;99.90;;;;;;4913294;29;40082;-78
2023/07/31 02:29:12;;;;;;;28.85;9.40;;;16.70;99.90;;;;;;4918826;28;38453;-78
2023/07/31 02:31:38;;;;;;;33.33;9.07;;;16.70;99.90;;;;;;4913228;29;39522;-78
2023/07/31 02:34:04;;;;;;;34.95;9.30;;;16.70;99.90;;;;;;4918935;28;39104;-78
2023/07/31 02:36:30;;;;;;;38.53;9.18;;;16.70;99.90;;;;;;4930772;28;39264;-78
2023/07/31 02:38:56;;;;;;;40.95;10.65;;;16.70;99.90;;;;;;4917060;29;37832;-78
2023/07/31 02:41:22;;;;;;;36.35;9.50;;;16.70;99.90;;;;;;4936044;28;40695;-78
2023/07/31 02:43:49;;;;;;;33.05;10.32;;;16.70;99.90;;;;;;4915272;29;39234;-78
2023/07/31 02:46:15;;;;;;;32.13;9.57;;;16.80;99.90;;;;;;4930557;28;39416;-77
2023/07/31 02:48:41;;;;;;;37.63;9.65;;;16.80;99.90;;;;;;4912979;29;38560;-77
2023/07/31 02:51:07;;;;;;;37.58;9.95;;;16.80;99.90;;;;;;4934970;28;39555;-78
2023/07/31 02:53:33;;;;;;;31.17;9.68;;;16.80;99.90;;;;;;4930462;29;40503;-78
2023/07/31 02:55:59;;;;;;;33.25;9.13;;;16.80;99.90;;;;;;4944219;28;39622;-78
2023/07/31 02:58:25;;;;;;;32.17;9.43;;;16.80;99.90;;;;;;4930666;28;37989;-78
2023/07/31 03:00:51;;;;;;;34.63;9.30;;;16.80;99.90;;;;;;4931738;28;38479;-79
2023/07/31 03:03:18;;;;;;;34.75;9.48;;;16.80;99.90;;;;;;4931799;29;39053;-79
2023/07/31 03:05:44;;;;;;;34.67;9.50;;;16.90;99.90;;;;;;4931242;28;38736;-78
2023/07/31 03:08:10;;;;;;;32.13;10.57;;;16.90;99.90;;;;;;4914335;29;37106;-78
2023/07/31 03:10:36;;;;;;;36.33;9.27;;;16.90;99.90;;;;;;4912905;29;39679;-79
2023/07/31 03:13:02;;;;;;;33.17;9.10;;;16.90;99.90;;;;;;4930731;28;39591;-78
2023/07/31 03:15:28;;;;;;;31.77;11.10;;;16.90;99.90;;;;;;4910351;29;38844;-79
2023/07/31 03:17:55;;;;;;;35.78;10.10;;;16.90;99.90;;;;;;4918952;29;35668;-78
2023/07/31 03:20:21;;;;;;;28.25;9.77;;;16.80;99.90;;;;;;4914530;28;38704;-78
2023/07/31 03:22:47;;;;;;;31.20;10.00;;;16.80;99.90;;;;;;4927044;28;38599;-78
2023/07/31 03:25:14;;;;;;;30.40;9.52;;;16.80;99.90;;;;;;4920605;28;39244;-78
2023/07/31 03:27:40;;;;;;;35.38;10.27;;;16.70;99.90;;;;;;4920580;29;39556;-79
2023/07/31 03:30:07;;;;;;;28.92;10.75;;;16.60;99.90;;;;;;4909586;29;39409;-78
2023/07/31 03:32:33;;;;;;;31.73;9.73;;;16.50;99.90;;;;;;4912675;29;37593;-77
2023/07/31 03:34:59;;;;;;;31.02;9.75;;;16.40;99.90;;;;;;4923615;28;38143;-77
2023/07/31 03:37:26;;;;;;;32.90;10.57;;;16.40;99.90;;;;;;4926616;28;37450;-77
2023/07/31 03:39:52;;;;;;;32.75;10.02;;;16.40;99.90;;;;;;4935009;28;39620;-77
2023/07/31 03:42:18;;;;;;;24.20;9.48;;;16.40;99.90;;;;;;4914766;29;39480;-77
2023/07/31 03:44:44;;;;;;;24.48;9.18;;;16.30;99.90;;;;;;4912256;29;40242;-78
2023/07/31 03:47:10;;;;;;;33.78;10.18;;;16.30;99.90;;;;;;4927614;28;37422;-78
2023/07/31 03:49:37;;;;;;;25.15;9.45;;;16.30;99.90;;;;;;4929553;29;37721;-77
2023/07/31 03:52:03;;;;;;;24.60;9.43;;;16.20;99.90;;;;;;4924086;29;39568;-78
2023/07/31 03:54:29;;;;;;;24.52;9.77;;;16.20;99.90;;;;;;4943311;28;38516;-78
2023/07/31 03:56:55;;;;;;;26.25;9.18;;;16.20;99.90;;;;;;4927885;28;37802;-78
2023/07/31 03:59:21;;;;;;;24.33;9.65;;;16.30;99.90;;;;;;4928957;28;39412;-77
2023/07/31 04:01:48;;;;;;;23.50;9.20;;;16.20;99.90;;;;;;4925238;28;38986;-77
2023/07/31 04:04:14;;;;;;;21.33;8.40;;;16.20;99.90;;;;;;4907776;29;39783;-78
2023/07/31 04:06:40;;;;;;;25.92;9.00;;;16.20;99.90;;;;;;4908120;29;38379;-77
2023/07/31 04:09:06;;;;;;;22.67;8.85;;;16.20;99.90;;;;;;4923619;28;38936;-78
2023/07/31 04:11:32;;;;;;;21.08;8.52;;;16.20;99.90;;;;;;4930188;28;39921;-77
2023/07/31 04:13:58;;;;;;;21.00;8.57;;;16.20;99.90;;;;;;4930604;28;38509;-78
2023/07/31 04:16:25;;;;;;;18.70;8.38;;;16.20;99.90;;;;;;4930687;28;37468;-78
2023/07/31 04:18:51;;;;;;;25.88;9.52;;;16.20;99.90;;;;;;4939628;28;39198;-78
2023/07/31 04:21:17;;;;;;;22.45;8.63;;;16.20;99.90;;;;;;4918274;29;39642;-77
2023/07/31 04:23:43;;;;;;;19.20;8.43;;;16.20;99.90;;;;;;4912890;29;37592;-77
2023/07/31 04:26:09;;;;;;;19.05;7.93;;;16.20;99.90;;;;;;4924056;28;36685;-77
2023/07/31 04:28:35;;;;;;;25.75;9.48;;;16.20;99.90;;;;;;4926109;28;38710;-77
2023/07/31 04:31:02;;;;;;;23.27;8.65;;;16.20;99.90;;;;;;4910719;29;39475;-79
2023/07/31 04:33:28;;;;;;;22.58;9.85;;;16.20;99.90;;;;;;4910966;29;37202;-78
2023/07/31 04:35:54;;;;;;;24.85;10.05;;;16.20;99.90;;;;;;4916370;29;37885;-78
2023/07/31 04:38:21;;;;;;;26.75;9.52;;;16.10;99.90;;;;;;4921057;28;40605;-78
2023/07/31 04:40:47;;;;;;;23.95;8.95;;;16.10;99.90;;;;;;4934717;28;39536;-79
2023/07/31 04:43:14;;;;;;;24.50;8.90;;;16.10;99.90;;;;;;4928020;28;38123;-77
2023/07/31 04:45:45;;;;;;;23.08;9.00;;;16.10;99.90;;;;;;4914034;29;35963;-78
2023/07/31 04:48:11;;;;;;;22.73;8.40;;;16.10;99.90;;;;;;4937064;28;40826;-78
2023/07/31 04:50:37;;;;;;;18.67;8.57;;;16.00;99.90;;;;;;4931200;28;39887;-77
2023/07/31 04:53:03;;;;;;;18.50;8.18;;;16.00;99.90;;;;;;4932283;28;38642;-78
2023/07/31 04:55:29;;;;;;;18.20;7.97;;;16.10;99.90;;;;;;4930317;28;37415;-78
2023/07/31 04:57:56;;;;;;;19.30;7.40;;;16.00;99.90;;;;;;4924745;28;37783;-78
2023/07/31 05:00:22;;;;;;;21.42;7.80;;;16.00;99.90;;;;;;4927619;28;38108;-78
2023/07/31 05:02:48;;;;;;;19.45;7.40;;;16.10;99.90;;;;;;4914845;28;38583;-78
2023/07/31 05:05:14;;;;;;;17.90;7.07;;;16.10;99.90;;;;;;4929281;28;38218;-77
2023/07/31 05:07:40;;;;;;;15.68;6.75;;;16.10;99.90;;;;;;4914236;29;39408;-77
2023/07/31 05:10:07;;;;;;;13.38;6.90;;;16.10;99.90;;;;;;4934611;28;38782;-78
2023/07/31 05:12:33;;;;;;;17.45;6.70;;;16.20;99.90;;;;;;4944310;28;39298;-77
2023/07/31 05:14:59;;;;;;;15.23;7.00;;;16.20;99.90;;;;;;4929753;28;36820;-78
2023/07/31 05:17:25;;;;;;;14.65;6.38;;;16.20;99.90;;;;;;4918850;29;37755;-78
2023/07/31 05:19:52;;;;;;;19.77;6.95;;;16.20;99.90;;;;;;4931124;28;38666;-77
2023/07/31 05:22:18;;;;;;;16.45;6.95;;;16.20;99.90;;;;;;4912838;28;36474;-78
2023/07/31 05:24:44;;;;;;;16.13;6.72;;;16.20;99.90;;;;;;4938720;28;38930;-78
2023/07/31 05:27:10;;;;;;;16.75;6.00;;;16.30;99.90;;;;;;4918975;28;39553;-78
2023/07/31 05:29:36;;;;;;;16.77;6.10;;;16.30;99.90;;;;;;4930257;28;39694;-78
2023/07/31 05:32:03;;;;;;;20.35;6.53;;;16.30;99.90;;;;;;4921706;28;37524;-78
2023/07/31 05:34:29;;;;;;;16.27;6.88;;;16.30;99.90;;;;;;4933464;28;36618;-79
2023/07/31 05:36:55;;;;;;;17.20;6.82;;;16.30;99.90;;;;;;4919992;28;37584;-78
2023/07/31 05:39:21;;;;;;;11.98;6.22;;;16.30;99.90;;;;;;4936174;28;37400;-78
2023/07/31 05:41:47;;;;;;;18.25;7.05;;;16.30;99.90;;;;;;4917318;28;37832;-78
2023/07/31 05:44:13;;;;;;;14.43;5.90;;;16.40;99.90;;;;;;4933485;28;37145;-78
2023/07/31 05:46:40;;;;;;;15.40;6.45;;;16.40;99.90;;;;;;4934706;28;38813;-78
2023/07/31 05:49:06;;;;;;;12.95;5.88;;;16.40;99.90;;;;;;4943649;28;37449;-79
2023/07/31 05:51:32;;;;;;;18.60;6.20;;;16.40;99.90;;;;;;4935407;29;38206;-78
2023/07/31 05:53:59;;;;;;;16.30;7.53;;;16.40;99.90;;;;;;4930390;28;37618;-79
2023/07/31 05:56:27;;;;;;;9.50;6.07;;;16.40;99.90;;;;;;4918889;28;39806;-79
2023/07/31 05:58:53;;;;;;;12.80;5.30;;;16.50;99.90;;;;;;4936731;28;38202;-79
2023/07/31 06:01:21;;;;;;;17.52;6.25;;;16.50;99.90;;;;;;4929753;28;38631;-78
2023/07/31 06:03:47;;;;;;;16.17;5.15;;;16.50;99.90;;;;;;4920553;28;36363;-79
2023/07/31 06:06:13;;;;;;;12.15;5.38;;;16.50;99.90;;;;;;4933590;28;40636;-78
2023/07/31 06:08:40;;;;;;;15.18;6.32;;;16.50;99.90;;;;;;4915375;29;40417;-78
2023/07/31 06:11:08;;;;;;;15.50;6.32;;;16.60;99.90;;;;;;4915016;29;39411;-78
2023/07/31 06:13:35;;;;;;;9.45;5.07;;;16.60;99.90;;;;;;4929536;28;37428;-77
2023/07/31 06:16:05;;;;;;;12.48;6.20;;;16.60;99.90;;;;;;4925157;28;37954;-78
2023/07/31 06:18:32;;;;;;;7.50;4.90;;;16.60;99.90;;;;;;4915324;29;47090;-78
2023/07/31 06:20:59;;;;;;;9.57;5.28;;;16.60;99.90;;;;;;4912424;29;38258;-77
2023/07/31 06:23:25;;;;;;;14.70;6.18;;;16.60;99.90;;;;;;4942961;28;38027;-78
2023/07/31 06:25:51;;;;;;;6.78;4.63;;;16.70;99.90;;;;;;4911637;29;38981;-77
2023/07/31 06:28:17;;;;;;;10.10;5.40;;;16.60;99.90;;;;;;4935446;28;38858;-78
2023/07/31 06:30:43;;;;;;;10.10;5.72;;;16.60;99.90;;;;;;4933163;28;38685;-78
2023/07/31 06:33:09;;;;;;;10.57;5.95;;;16.60;99.90;;;;;;4916229;29;35526;-78
2023/07/31 06:35:35;;;;;;;12.63;5.18;;;16.60;99.90;;;;;;4915517;28;38072;-77
2023/07/31 06:38:02;;;;;;;13.57;6.35;;;16.60;99.90;;;;;;4921301;29;35222;-78
2023/07/31 06:40:29;;;;;;;8.52;5.20;;;16.60;99.90;;;;;;4935287;28;39618;-78
2023/07/31 06:42:55;;;;;;;9.90;5.28;;;16.70;99.90;;;;;;4931789;28;37727;-78
2023/07/31 06:45:21;;;;;;;9.73;4.88;;;16.70;99.90;;;;;;4929482;28;37522;-78
2023/07/31 06:47:48;;;;;;;6.88;5.07;;;16.70;99.90;;;;;;4910941;29;40246;-78
2023/07/31 06:50:14;;;;;;;6.55;4.95;;;16.60;99.90;;;;;;4915786;29;40104;-78
2023/07/31 06:52:40;;;;;;;8.90;5.45;;;16.70;99.90;;;;;;4922414;29;38995;-79
2023/07/31 06:55:21;;;;;;;6.22;4.20;;;16.70;99.90;;;;;;4931538;28;39803;-78
2023/07/31 06:57:52;;;;;;;9.55;4.85;;;16.80;99.90;;;;;;4916364;29;37852;-78
2023/07/31 07:00:19;;;;;;;9.40;5.18;;;16.80;99.90;;;;;;4919521;28;38794;-77
2023/07/31 07:02:48;;;;;;;3.72;3.30;;;16.80;99.90;;;;;;4923511;28;37263;-78
2023/07/31 07:05:15;;;;;;;5.95;3.83;;;16.80;99.90;;;;;;4924697;28;38793;-77
2023/07/31 07:07:42;;;;;;;7.82;3.20;;;16.80;99.90;;;;;;4912051;29;39773;-78
2023/07/31 07:10:09;;;;;;;5.45;3.08;;;16.80;99.90;;;;;;4919467;28;39186;-78
2023/07/31 07:12:36;;;;;;;4.82;3.20;;;16.90;99.90;;;;;;4926015;28;37727;-78
2023/07/31 07:15:02;;;;;;;6.18;3.30;;;16.90;99.90;;;;;;4927701;28;39629;-79
2023/07/31 07:17:32;;;;;;;4.75;2.70;;;16.90;99.90;;;;;;4924604;28;48468;-78
2023/07/31 07:19:59;;;;;;;3.97;2.70;;;16.90;99.90;;;;;;4926035;28;38058;-78
2023/07/31 07:22:26;;;;;;;4.85;2.78;;;16.90;99.90;;;;;;4931372;28;36949;-77
2023/07/31 07:24:53;;;;;;;7.82;2.85;;;16.90;99.90;;;;;;4923284;28;37544;-78
2023/07/31 07:27:19;;;;;;;4.22;2.38;;;17.00;99.90;;;;;;4921942;28;38058;-78
2023/07/31 07:29:46;;;;;;;6.57;2.83;;;17.00;99.90;;;;;;4914741;29;40053;-79
2023/07/31 07:32:13;;;;;;;3.22;2.30;;;17.00;99.90;;;;;;4921878;28;36070;-79
2023/07/31 07:34:39;;;;;;;4.78;2.65;;;17.00;99.90;;;;;;4914461;29;39872;-78
2023/07/31 07:37:05;;;;;;;5.38;2.53;;;17.00;99.90;;;;;;4926451;28;38632;-78
2023/07/31 07:39:31;;;;;;;5.57;2.00;;;17.00;99.90;;;;;;4930037;28;38393;-78
2023/07/31 07:41:58;;;;;;;3.00;2.00;;;17.00;99.90;;;;;;4926810;28;37358;-78
2023/07/31 07:44:24;;;;;;;3.03;1.98;;;17.00;99.90;;;;;;4917638;28;37400;-78
2023/07/31 07:46:50;;;;;;;5.90;2.10;;;17.10;99.90;;;;;;4920274;29;39048;-78
2023/07/31 07:49:16;;;;;;;3.17;1.70;;;17.20;99.90;;;;;;4929066;28;38529;-79
2023/07/31 07:51:43;;;;;;;3.42;2.10;;;17.10;99.90;;;;;;4924809;28;38036;-79
2023/07/31 07:54:09;;;;;;;3.40;1.75;;;17.10;99.90;;;;;;4921236;28;40665;-78
2023/07/31 07:56:36;;;;;;;3.75;1.60;;;17.10;99.90;;;;;;4929947;28;39096;-78
2023/07/31 07:59:02;;;;;;;4.43;1.80;;;17.10;99.90;;;;;;4919481;28;39350;-78
2023/07/31 08:01:28;;;;;;;3.33;1.63;;;17.20;99.90;;;;;;4926971;29;37050;-79
2023/07/31 08:03:55;;;;;;;3.97;1.85;;;17.10;99.90;;;;;;4932863;28;39698;-78
2023/07/31 08:06:22;;;;;;;2.65;1.20;;;17.10;99.90;;;;;;4936812;28;37671;-78
2023/07/31 08:08:48;;;;;;;3.33;1.75;;;17.20;99.90;;;;;;4929452;28;39050;-79
2023/07/31 08:11:14;;;;;;;4.20;1.83;;;17.20;99.90;;;;;;4940101;28;37511;-79
2023/07/31 08:13:41;;;;;;;3.05;2.00;;;17.20;99.90;;;;;;4937680;28;40016;-79
2023/07/31 08:16:07;;;;;;;1.75;1.38;;;17.30;99.90;;;;;;4932260;28;38387;-79
2023/07/31 08:18:33;;;;;;;2.78;1.90;;;17.30;99.90;;;;;;4931886;28;39442;-79
2023/07/31 08:21:01;;;;;;;3.40;1.63;;;17.40;99.90;;;;;;4931975;28;37996;-78
2023/07/31 08:23:30;;;;;;;4.97;1.50;;;17.50;99.90;;;;;;4920167;28;48254;-79
2023/07/31 08:25:56;;;;;;;3.42;1.70;;;17.60;99.90;;;;;;4911400;29;40541;-80
2023/07/31 08:28:22;;;;;;;2.45;1.35;;;17.50;99.90;;;;;;4913685;29;38782;-80
2023/07/31 08:30:50;;;;;;;2.25;1.67;;;17.70;99.90;;;;;;4926894;28;37024;-79
2023/07/31 08:33:16;;;;;;;2.88;1.80;;;17.60;99.90;;;;;;4929060;28;39802;-80
2023/07/31 08:35:42;;;;;;;5.50;1.90;;;17.60;99.90;;;;;;4941065;28;39050;-81
2023/07/31 08:38:08;;;;;;;4.07;1.58;;;17.60;99.90;;;;;;4934382;28;38990;-81
2023/07/31 08:40:40;;;;;;;2.55;1.73;;;17.50;99.90;;;;;;4932300;28;37801;-80
2023/07/31 08:43:08;;;;;;;1.95;1.73;;;17.50;99.90;;;;;;4932205;28;39913;-79
2023/07/31 08:45:34;;;;;;;3.00;1.70;;;17.50;99.90;;;;;;4938101;28;39199;-78
2023/07/31 08:48:01;;;;;;;2.83;1.98;;;17.60;99.90;;;;;;4931050;28;39316;-79
2023/07/31 08:50:28;;;;;;;4.50;2.13;;;17.50;99.90;;;;;;4927812;28;47465;-79
2023/07/31 08:52:54;;;;;;;2.80;2.28;;;17.50;99.90;;;;;;4913524;29;38358;-80
2023/07/31 08:55:23;;;;;;;3.33;2.83;;;17.60;99.90;;;;;;4919031;28;39789;-78
2023/07/31 08:57:54;;;;;;;3.42;2.40;;;17.60;99.90;;;;;;4915472;29;38609;-77
2023/07/31 09:00:23;;;;;;;6.57;2.60;;;17.60;99.90;;;;;;4932697;28;37286;-80
2023/07/31 09:03:14;;;;;;;4.97;2.60;;;17.70;99.90;;;;;;4926942;28;38784;-79
2023/07/31 09:05:46;;;;;;;8.20;3.30;;;18.00;99.90;;;;;;4912340;28;48876;-78
2023/07/31 09:08:14;;;;;;;4.82;2.78;;;18.00;99.90;;;;;;4913479;28;38561;-79
2023/07/31 09:10:49;;;;;;;3.05;2.72;;;18.00;99.90;;;;;;4910361;28;37122;-79
2023/07/31 09:13:16;;;;;;;3.80;2.95;;;18.10;99.90;;;;;;4913047;29;38357;-79
2023/07/31 09:15:46;;;;;;;6.45;3.17;;;18.00;99.90;;;;;;4928734;29;39562;-79
2023/07/31 09:18:14;;;;;;;3.65;2.97;;;18.00;99.90;;;;;;4910564;28;40080;-79
2023/07/31 09:20:40;;;;;;;5.10;2.78;;;18.00;99.90;;;;;;4908510;29;37547;-78
2023/07/31 09:23:09;;;;;;;4.10;3.13;;;18.00;99.90;;;;;;4922210;28;39686;-78
2023/07/31 09:25:36;;;;;;;4.55;3.03;;;18.20;99.90;;;;;;4915395;28;38714;-79
2023/07/31 09:28:04;;;;;;;5.15;3.10;;;18.10;99.90;;;;;;4926736;28;37670;-79
2023/07/31 09:30:43;;;;;;;4.90;3.00;;;18.00;99.90;;;;;;4924849;28;37278;-78
2023/07/31 09:33:09;;;;;;;4.28;3.25;;;18.10;99.90;;;;;;4919208;28;39647;-79
2023/07/31 09:35:40;;;;;;;4.97;3.00;;;18.20;99.90;;;;;;4902484;29;39748;-79
2023/07/31 09:38:10;;;;;;;5.35;3.38;;;18.10;99.90;;;;;;4903046;29;37338;-78
2023/07/31 09:40:39;;;;;;;3.00;2.70;;;18.10;99.90;;;;;;4910320;29;37852;-79
2023/07/31 09:43:08;;;;;;;5.10;2.88;;;18.10;99.90;;;;;;4910613;28;39659;-79
2023/07/31 09:45:39;;;;;;;3.78;2.60;;;18.10;99.90;;;;;;4911119;29;39636;-79
2023/07/31 09:48:10;;;;;;;4.03;2.47;;;18.10;99.90;;;;;;4904789;28;39131;-78
2023/07/31 09:50:39;;;;;;;5.30;2.95;;;18.10;99.90;;;;;;4911495;28;37318;-80
2023/07/31 09:53:08;;;;;;;3.45;2.60;;;18.10;99.90;;;;;;4905214;28;38611;-81
2023/07/31 09:55:35;;;;;;;2.95;2.42;;;18.10;99.90;;;;;;4915361;28;38995;-79
2023/07/31 09:58:07;;;;;;;4.03;2.80;;;18.20;99.90;;;;;;4923444;28;39117;-80
2023/07/31 10:00:34;;;;;;;4.15;2.25;;;18.20;99.90;;;;;;4922328;28;35813;-78
2023/07/31 10:03:05;;;;;;;4.93;2.20;;;18.00;99.90;;;;;;4922038;28;39162;-80
2023/07/31 10:05:39;;;;;;;2.47;2.10;;;18.00;99.90;;;;;;4916187;29;47468;-80
2023/07/31 10:08:07;;;;;;;3.53;2.47;;;18.00;99.90;;;;;;4928755;28;38491;-80
2023/07/31 10:10:36;;;;;;;2.83;2.53;;;18.00;99.90;;;;;;4931487;28;37536;-80
2023/07/31 10:13:04;;;;;;;4.15;2.42;;;17.90;99.90;;;;;;4916797;28;41005;-79
2023/07/31 10:15:31;;;;;;;5.22;2.70;;;17.90;99.90;;;;;;4930579;28;38856;-80
2023/07/31 10:17:59;;;;;;;5.13;3.45;;;17.90;99.90;;;;;;4914245;29;38548;-81
2023/07/31 10:20:27;;;;;;;7.75;3.55;;;18.00;99.90;;;;;;4913628;29;38218;-79
2023/07/31 10:22:55;;;;;;;8.27;4.20;;;17.90;99.90;;;;;;4926590;28;39494;-81
2023/07/31 10:25:22;;;;;;;6.55;3.20;;;17.90;99.90;;;;;;4918992;28;39095;-80
2023/07/31 10:27:50;;;;;;;6.22;4.13;;;18.00;99.90;;;;;;4906522;29;39814;-79
2023/07/31 10:30:20;;;;;;;10.48;4.68;;;17.90;99.90;;;;;;4914923;28;36365;-79
2023/07/31 10:32:49;;;;;;;9.82;4.40;;;18.10;99.90;;;;;;4904362;28;40059;-81
2023/07/31 10:35:17;;;;;;;9.75;4.60;;;18.10;99.90;;;;;;4910820;28;38555;-80
2023/07/31 10:37:44;;;;;;;10.45;5.18;;;18.10;99.90;;;;;;4922648;28;39386;-79
2023/07/31 10:40:19;;;;;;;8.73;5.28;;;18.10;99.90;;;;;;4922344;29;38031;-80
2023/07/31 10:42:57;;;;;;;9.35;6.30;;;18.10;99.90;;;;;;4911081;29;40583;-79
2023/07/31 10:45:33;;;;;;;11.55;7.40;;;18.10;99.90;;;;;;4917667;28;39441;-79
2023/07/31 10:48:03;;;;;;;9.75;7.68;;;18.10;99.90;;;;;;4917325;29;39231;-80
2023/07/31 10:50:34;;;;;;;11.05;7.85;;;18.20;99.90;;;;;;4929350;28;48811;-81
2023/07/31 10:53:01;;;;;;;15.05;8.85;;;18.20;99.90;;;;;;4927620;28;39130;-80
2023/07/31 10:55:33;;;;;;;14.10;8.57;;;18.30;99.90;;;;;;4931013;28;39129;-79
2023/07/31 10:58:08;;;;;;;10.57;8.15;;;18.30;99.90;;;;;;4913947;29;39322;-80
2023/07/31 11:00:45;;;;;;;11.68;7.47;;;18.40;99.90;;;;;;4930442;28;47862;-82
2023/07/31 11:03:15;;;;;;;12.70;8.70;;;18.40;99.90;;;;;;4930137;28;38906;-80
2023/07/31 11:06:05;;;;;;;11.80;7.90;;;18.40;99.90;;;;;;4911202;28;39493;-79
2023/07/31 11:08:33;;;;;;;14.43;7.70;;;18.40;99.90;;;;;;4911724;28;48658;-80
2023/07/31 11:11:02;;;;;;;10.38;8.00;;;18.50;99.90;;;;;;4939542;28;37190;-80
2023/07/31 11:13:42;;;;;;;9.60;6.63;;;18.70;99.90;;;;;;4929621;28;48366;-82
2023/07/31 11:16:09;;;;;;;8.77;6.55;;;18.60;99.90;;;;;;4934360;28;39698;-79
2023/07/31 11:18:38;;;;;;;10.70;6.85;;;18.70;99.90;;;;;;4916586;29;39216;-80
2023/07/31 11:21:04;;;;;;;8.25;6.30;;;18.70;99.90;;;;;;4930727;28;37576;-80
2023/07/31 11:23:31;;;;;;;8.73;6.15;;;18.70;99.90;;;;;;4933400;28;39807;-81
2023/07/31 11:26:00;;;;;;;11.75;7.03;;;18.70;99.90;;;;;;4918300;29;39624;-79
2023/07/31 11:28:30;;;;;;;8.55;5.63;;;18.80;99.90;;;;;;4907669;29;40890;-80
2023/07/31 11:30:56;;;;;;;8.52;5.60;;;18.80;99.90;;;;;;4924674;28;37158;-80
2023/07/31 11:33:23;;;;;;;11.18;4.82;;;18.80;99.90;;;;;;4936232;28;39673;-80
2023/07/31 11:35:49;;;;;;;8.52;4.85;;;18.70;99.90;;;;;;4913402;29;39234;-80
2023/07/31 11:38:30;;;;;;;5.35;4.30;;;18.70;99.90;;;;;;4917602;28;40080;-78
2023/07/31 11:41:02;;;;;;;6.50;4.70;;;18.60;99.90;;;;;;4938888;28;38438;-79
2023/07/31 11:43:28;;;;;;;;;;;18.70;99.90;;;;;;4918374;29;47060;-80
2023/07/31 11:45:59;;;;;;;9.00;4.28;;;18.70;99.90;;;;;;4937042;28;38569;-80
2023/07/31 11:48:29;;;;;;;7.38;3.85;;;18.90;99.90;;;;;;4934855;28;38260;-79
2023/07/31 11:50:59;;;;;;;4.75;3.80;;;18.80;99.90;;;;;;4940597;28;37619;-79
2023/07/31 11:53:40;;;;;;;5.22;3.53;;;18.90;99.90;;;;;;4920188;29;41038;-79
2023/07/31 11:56:08;;;;;;;8.05;4.22;;;18.90;99.90;;;;;;4933694;28;37744;-80
2023/07/31 11:58:36;;;;;;;3.30;2.95;;;18.90;99.90;;;;;;4921348;28;38598;-79
2023/07/31 12:01:02;;;;;;;5.20;3.30;;;18.90;99.90;;;;;;4932691;28;38605;-79
2023/07/31 12:03:29;;;;;;;5.15;3.70;;;18.90;99.90;;;;;;4929333;28;39933;-78
2023/07/31 12:05:55;;;;;;;7.32;3.38;;;18.90;99.90;;;;;;4929334;28;39777;-77
2023/07/31 12:08:26;;;;;;;4.57;3.22;;;18.80;99.90;;;;;;4913045;29;20056;-79
2023/07/31 12:10:53;;;;;;;6.40;3.47;;;18.90;99.90;;;;;;4930041;29;38199;-78
2023/07/31 12:13:24;;;;;;;7.20;3.80;;;18.90;99.90;;;;;;4929533;28;38540;-79
2023/07/31 12:15:56;;;;;;;5.78;3.70;;;18.80;99.90;;;;;;4927330;28;38639;-78
2023/07/31 12:18:22;;;;;;;7.82;3.38;;;18.90;99.90;;;;;;4930793;28;39260;-78
2023/07/31 12:20:59;;;;;;;5.22;3.80;;;18.90;99.90;;;;;;4930292;28;38074;-78
2023/07/31 12:23:31;;;;;;;4.72;3.05;;;19.00;99.90;;;;;;4929297;29;39239;-80
2023/07/31 12:26:13;;;;;;;6.50;3.70;;;19.00;99.90;;;;;;4917169;29;38106;-77
2023/07/31 12:28:48;;;;;;;7.25;3.20;;;19.00;99.90;;;;;;4911766;29;47283;-79
2023/07/31 12:31:19;;;;;;;2.25;2.03;;;18.90;99.90;;;;;;4927446;28;38295;-79
2023/07/31 12:33:47;;;;;;;2.55;2.00;;;18.80;99.90;;;;;;4928257;29;38711;-77
2023/07/31 12:36:15;;;;;;;2.55;1.95;;;18.80;99.90;;;;;;4918869;28;39817;-77
2023/07/31 12:38:42;;;;;;;1.58;1.33;;;18.90;99.90;;;;;;4921673;28;39517;-78
2023/07/31 12:41:08;;;;;;;3.08;2.00;;;18.80;99.90;;;;;;4935532;28;37821;-78
2023/07/31 12:43:39;;;;;;;2.78;1.80;;;18.80;99.90;;;;;;4926310;28;38722;-77